地図

経路データ

SID SEASON NUMBER BASIN SUBBASIN NAME ISO_TIME NATURE LAT LON WMO_WIND WMO_PRES WMO_AGENCY TRACK_TYPE DIST2LAND LANDFALL IFLAG USA_AGENCY USA_ATCF_ID USA_LAT USA_LON USA_RECORD USA_STATUS USA_WIND USA_PRES USA_SSHS USA_R34_NE USA_R34_SE USA_R34_SW USA_R34_NW USA_R50_NE USA_R50_SE USA_R50_SW USA_R50_NW USA_R64_NE USA_R64_SE USA_R64_SW USA_R64_NW USA_POCI USA_ROCI USA_RMW USA_EYE TOKYO_LAT TOKYO_LON TOKYO_GRADE TOKYO_WIND TOKYO_PRES TOKYO_R50_DIR TOKYO_R50_LONG TOKYO_R50_SHORT TOKYO_R30_DIR TOKYO_R30_LONG TOKYO_R30_SHORT TOKYO_LAND CMA_LAT CMA_LON CMA_CAT CMA_WIND CMA_PRES HKO_LAT HKO_LON HKO_CAT HKO_WIND HKO_PRES NEWDELHI_LAT NEWDELHI_LON NEWDELHI_GRADE NEWDELHI_WIND NEWDELHI_PRES NEWDELHI_CI NEWDELHI_DP NEWDELHI_POCI REUNION_LAT REUNION_LON REUNION_TYPE REUNION_WIND REUNION_PRES REUNION_TNUM REUNION_CI REUNION_RMW REUNION_R34_NE REUNION_R34_SE REUNION_R34_SW REUNION_R34_NW REUNION_R50_NE REUNION_R50_SE REUNION_R50_SW REUNION_R50_NW REUNION_R64_NE REUNION_R64_SE REUNION_R64_SW REUNION_R64_NW BOM_LAT BOM_LON BOM_TYPE BOM_WIND BOM_PRES BOM_TNUM BOM_CI BOM_RMW BOM_R34_NE BOM_R34_SE BOM_R34_SW BOM_R34_NW BOM_R50_NE BOM_R50_SE BOM_R50_SW BOM_R50_NW BOM_R64_NE BOM_R64_SE BOM_R64_SW BOM_R64_NW BOM_ROCI BOM_POCI BOM_EYE BOM_POS_METHOD BOM_PRES_METHOD NADI_LAT NADI_LON NADI_CAT NADI_WIND NADI_PRES WELLINGTON_LAT WELLINGTON_LON WELLINGTON_WIND WELLINGTON_PRES DS824_LAT DS824_LON DS824_STAGE DS824_WIND DS824_PRES TD9636_LAT TD9636_LON TD9636_STAGE TD9636_WIND TD9636_PRES TD9635_LAT TD9635_LON TD9635_WIND TD9635_PRES TD9635_ROCI NEUMANN_LAT NEUMANN_LON NEUMANN_CLASS NEUMANN_WIND NEUMANN_PRES MLC_LAT MLC_LON MLC_CLASS MLC_WIND MLC_PRES USA_GUST BOM_GUST BOM_GUST_PER REUNION_GUST REUNION_GUST_PER USA_SEAHGT USA_SEARAD_NE USA_SEARAD_SE USA_SEARAD_SW USA_SEARAD_NW STORM_SPEED STORM_DIR
1971082S17121 1971 37 SI WA MAVIS 1971-03-23 00:00:00 TS -17.0000 121.120 1003 bom main 121 121 O_____O__OO___ jtwc_sh SH261971 -17.0000 121.000 25 -1 -17.0000 121.300 1003 -17.0000 121.300 TC 25 1003 -17.0000 121.000 1 25 11 270
1971082S17121 1971 37 SI WA MAVIS 1971-03-23 03:00:00 TS -17.0016 120.525 1002 bom main 182 182 P_____O__PP___ SH261971 -17.0002 120.500 22 -1 -17.0000 120.500 1002 -17.0006 120.620 TC 27 1002 -17.0071 120.503 1 23 10 270
1971082S17121 1971 37 SI WA MAVIS 1971-03-23 06:00:00 TS -17.0020 120.045 1001 bom main 232 232 O_____O__OP_O_ jtwc_sh SH261971 -17.0000 120.000 20 -1 -17.0000 120.000 1001 -17.0000 120.000 TC 30 1001 -17.0109 120.005 1 22 -17.0000 120.700 TC 25 1002 9 270
1971082S17121 1971 37 SI WA MAVIS 1971-03-23 09:00:00 TS -17.0016 119.555 1000 bom main 273 273 P_____O__PP_P_ SH261971 -16.9999 119.500 20 -1 -17.0000 119.500 1000 -16.9997 119.478 TC 30 1000 -17.0092 119.505 1 21 -17.0004 120.137 TC 27 1001 9 270
1971082S17121 1971 37 SI WA MAVIS 1971-03-23 12:00:00 TS -17.0000 119.078 999 bom main 325 325 O_____O__OO_O_ jtwc_sh SH261971 -17.0000 119.000 20 -1 -17.0000 119.000 999 -17.0000 119.000 TC 30 999 -17.0000 119.000 1 20 -17.0000 119.600 TC 30 1000 9 270
1971082S17121 1971 37 SI WA MAVIS 1971-03-23 15:00:00 TS -16.9972 118.597 999 bom main 350 350 P_____O__PP_P_ SH261971 -16.9999 118.500 20 -1 -17.0000 118.500 999 -16.9999 118.493 TC 32 998 -16.9835 118.492 1 20 -16.9998 119.100 TC 30 999 9 270
1971082S17121 1971 37 SI WA MAVIS 1971-03-23 18:00:00 TS -16.9950 118.097 998 bom main 362 362 O_____O__OP_O_ jtwc_sh SH261971 -17.0000 118.000 20 -1 -17.0000 118.000 998 -17.0000 118.000 TC 35 998 -16.9697 117.985 1 20 -17.0000 118.600 TC 30 999 10 271
1971082S17121 1971 37 SI WA MAVIS 1971-03-23 21:00:00 TS -16.9876 117.594 998 bom main 381 381 P_____O__PP_P_ SH261971 -16.9924 117.500 20 -1 -17.0000 117.500 998 -16.9848 117.542 TC 35 997 -16.9711 117.485 1 20 -16.9851 118.035 TC 32 998 9 270
1971082S17121 1971 37 SI WA MAVIS 1971-03-24 00:00:00 TS -17.0000 117.117 997 bom main 394 391 O_____O__OO_O_ jtwc_sh SH261971 -17.0000 117.000 20 -1 -17.0000 117.100 997 -17.0000 117.100 TC 35 997 -17.0000 117.000 1 20 -17.0000 117.500 TC 35 997 9 265
1971082S17121 1971 37 SI WA MAVIS 1971-03-24 03:00:00 TS -17.0646 116.653 997 bom main 391 383 P_____O__PP_P_ SH261971 -17.0275 116.485 20 -1 -17.1000 116.700 997 -17.0849 116.658 TC 35 997 -17.0630 116.511 1 20 -17.0848 117.078 TC 35 996 9 260
1971082S17121 1971 37 SI WA MAVIS 1971-03-24 06:00:00 TS -17.1592 116.190 997 bom main 383 381 O_____O__OP_O_ jtwc_sh SH261971 -17.1000 116.000 20 -1 -17.2000 116.200 997 -17.2000 116.200 TC 35 997 -17.1549 116.040 1 20 -17.2000 116.700 TC 35 996 9 257
1971082S17121 1971 37 SI WA MAVIS 1971-03-24 09:00:00 TS -17.2719 115.739 997 bom main 383 379 P_____O__PP_P_ SH261971 -17.2349 115.570 20 -1 -17.3000 115.700 997 -17.3000 115.692 TC 35 997 -17.2694 115.599 1 20 -17.2924 116.300 TC 35 996 9 254
1971082S17121 1971 37 SI WA MAVIS 1971-03-24 12:00:00 TS -17.4000 115.317 997 bom main 387 385 O_____O__OO_O_ jtwc_sh SH261971 -17.4000 115.200 20 -1 -17.4000 115.200 997 -17.4000 115.200 TC 35 997 -17.4000 115.200 1 20 -17.4000 115.900 TC 35 996 8 252
1971082S17121 1971 37 SI WA MAVIS 1971-03-24 15:00:00 TS -17.5242 114.948 996 bom main 395 385 P_____O__PP_P_ SH261971 -17.5499 114.885 22 -1 -17.5000 114.800 996 -17.4850 114.755 TC 35 996 -17.5106 114.869 1 23 -17.5500 115.493 TC 35 996 7 249
1971082S17121 1971 37 SI WA MAVIS 1971-03-24 18:00:00 TS -17.6565 114.613 996 bom main 392 392 O_____O__OP_O_ jtwc_sh SH261971 -17.7000 114.600 25 -1 -17.6000 114.400 996 -17.6000 114.400 TC 35 996 -17.6391 114.577 1 27 -17.7000 115.100 TC 35 996 6 244
1971082S17121 1971 37 SI WA MAVIS 1971-03-24 21:00:00 TS -17.8025 114.343 996 bom main 399 390 P_____O__PP_P_ SH261971 -17.8274 114.307 30 -1 -17.8000 114.200 996 -17.7773 114.177 TC 35 996 -17.7981 114.296 1 31 -17.7847 114.772 TC 35 996 6 238
1971082S17121 1971 37 SI WA MAVIS 1971-03-25 00:00:00 TS -17.9833 114.067 996 bom main 392 388 O_____O__OO_O_ jtwc_sh SH261971 -18.0000 114.000 35 0 -18.0000 114.000 996 -18.0000 114.000 TC 35 996 -18.0000 114.000 2 35 -17.9000 114.400 TC 35 996 7 233
1971082S17121 1971 37 SI WA MAVIS 1971-03-25 03:00:00 TS -18.2290 113.757 995 bom main 391 383 P_____O__PP_P_ SH261971 -18.2774 113.665 35 0 -18.2000 113.800 995 -18.2273 113.795 TC 37 995 -18.2716 113.727 2 36 -18.1200 113.888 TC 37 995 8 230
1971082S17121 1971 37 SI WA MAVIS 1971-03-25 06:00:00 TS -18.5304 113.387 994 bom main 385 359 O_____O__OP_O_ jtwc_sh SH261971 -18.6000 113.300 35 0 -18.5000 113.500 994 -18.5000 113.500 TC 40 994 -18.5823 113.422 2 37 -18.4000 113.300 TC 40 994 10 230
1971082S17121 1971 37 SI WA MAVIS 1971-03-25 09:00:00 TS -18.8633 112.950 993 bom main 354 339 P_____O__PP_P_ SH261971 -18.9144 112.967 37 0 -18.9000 112.900 993 -18.8566 113.127 TC 42 993 -18.9021 113.030 2 38 -18.6924 112.707 TC 42 993 11 235
1971082S17121 1971 37 SI WA MAVIS 1971-03-25 12:00:00 TS -19.1667 112.433 992 bom main 344 344 O_____O__OO_O_ jtwc_sh SH261971 -19.2000 112.500 40 0 -19.2000 112.500 992 -19.2000 112.500 TC 45 992 -19.2000 112.500 2 40 -19.0000 112.100 TC 45 992 14 247
1971082S17121 1971 37 SI WA MAVIS 1971-03-25 15:00:00 TS -19.4159 111.539 990 bom main 381 380 P_____O__PP_P_ SH261971 -19.4150 111.782 40 0 -19.5000 111.000 990 -19.4241 111.430 TC 50 988 -19.4193 111.724 2 41 -19.3221 111.515 TC 47 990 17 255
1971082S17121 1971 37 SI WA MAVIS 1971-03-25 18:00:00 TS -19.6019 110.686 985 bom main 428 428 O_____O__OP_O_ jtwc_sh SH261971 -19.6000 110.900 40 0 -19.6000 110.300 985 -19.6000 110.300 TC 55 985 -19.6115 110.817 2 42 -19.6000 110.900 TC 50 988 17 257
1971082S17121 1971 37 SI WA MAVIS 1971-03-25 21:00:00 TS -19.7888 109.823 980 bom main 495 495 P_____O__PP_P_ SH261971 -19.7930 109.927 42 0 -19.8000 109.500 980 -19.7917 109.510 TC 60 980 -19.7974 109.877 2 43 -19.7576 110.200 TC 57 983 16 256
1971082S17121 1971 37 SI WA MAVIS 1971-03-26 00:00:00 TS -19.9833 109.050 975 bom main 549 549 O_____O__OO_O_ jtwc_sh SH261971 -20.0000 109.000 45 0 -20.0000 108.900 975 4 -20.0000 108.900 TC 65 975 -20.0000 109.000 2 45 -19.9000 109.500 TC 65 978 14 252
1971082S17121 1971 37 SI WA MAVIS 1971-03-26 03:00:00 TS -20.2131 108.434 975 bom main 601 601 P_____O__PP_P_ SH261971 -20.2343 108.290 40 0 -20.2000 108.500 975 -20.2344 108.392 TC 65 975 -20.2485 108.248 2 40 -20.1271 108.885 TC 67 976 12 246
1971082S17121 1971 37 SI WA MAVIS 1971-03-26 06:00:00 TS -20.4865 107.847 975 bom main 643 643 O_____O__OP_O_ jtwc_sh SH261971 -20.5000 107.700 35 0 -20.5000 107.900 975 -20.5000 107.900 TC 65 975 -20.5191 107.583 2 35 -20.4000 108.300 TC 70 975 12 243
1971082S17121 1971 37 SI WA MAVIS 1971-03-26 09:00:00 TS -20.7829 107.255 975 bom main 681 681 P_____O__PP_P_ SH261971 -20.7997 107.127 30 -1 -20.8000 107.300 975 -20.7927 107.258 TC 65 975 -20.8052 107.027 2 30 -20.6999 107.692 TC 70 975 12 241
1971082S17121 1971 37 SI WA MAVIS 1971-03-26 12:00:00 TS -21.0833 106.683 975 bom main 731 731 O_____O__OO_O_ jtwc_sh SH261971 -21.1000 106.600 25 -1 -21.1000 106.600 975 -21.1000 106.600 TC 65 975 -21.1000 106.600 1 25 -21.0000 107.100 TC 70 975 12 243
1971082S17121 1971 37 SI WA MAVIS 1971-03-26 15:00:00 TS -21.3437 106.100 975 bom main 786 784 P_____O__PP_P_ SH261971 -21.3427 105.988 25 -1 -21.4000 106.000 975 -21.3851 105.968 TC 65 975 -21.3493 106.137 1 -21.2424 106.520 TC 70 975 11 240
1971082S17121 1971 37 SI WA MAVIS 1971-03-26 18:00:00 TS -21.6188 105.671 975 bom main 821 821 O_____O__OP_O_ jtwc_sh SH261971 -21.6000 105.600 25 -1 -21.7000 105.500 975 -21.7000 105.500 TC 65 975 -21.6125 105.826 1 -21.5000 106.000 TC 70 975 9 228
1971082S17121 1971 37 SI WA MAVIS 1971-03-26 21:00:00 TS -21.9309 105.407 975 bom main 847 822 P_____O__PP_P_ SH261971 -21.9039 105.583 22 -1 -22.0000 105.000 975 -22.0382 105.132 TC 65 975 -21.9197 105.751 1 -21.8195 105.391 TC 70 975 7 184
1971082S17121 1971 37 SI WA MAVIS 1971-03-27 00:00:00 TS -22.3500 105.633 976 bom main 822 722 O_____O__OO_O_ jtwc_sh SH261971 -22.3000 106.000 20 -1 -22.5000 105.300 976 -22.5000 105.300 TC 65 976 -22.3000 106.000 1 -22.2000 105.200 TC 70 975 14 134
1971082S17121 1971 37 SI WA MAVIS 1971-03-27 03:00:00 TS -22.9279 106.531 977 bom main 722 597 P_____O__PP_P_ SH261971 -22.8206 106.822 22 -1 -23.3000 106.700 977 -23.2175 106.366 TC 62 977 -22.7811 106.654 1 -22.6278 105.824 TC 67 976 22 122
1971082S17121 1971 37 SI WA MAVIS 1971-03-27 06:00:00 TS -23.5049 107.655 978 bom main 587 489 O_____O__OP_O_ jtwc_sh SH261971 -23.4000 107.900 25 -1 -23.9000 107.800 978 -23.9000 107.800 TC 60 978 -23.3296 107.629 1 -23.1000 106.900 TC 65 977 22 118
1971082S17121 1971 37 SI WA MAVIS 1971-03-27 09:00:00 TS -23.9568 108.681 979 bom main 478 364 P_____O__PP_P_ SH261971 -23.9499 108.951 25 -1 -24.1000 108.500 979 -24.2365 108.940 TC 60 979 -23.9125 108.790 1 -23.5923 107.955 TC 62 979 22 115
1971082S17121 1971 37 SI WA MAVIS 1971-03-27 12:00:00 TS -24.4333 109.850 981 bom main 354 268 O_____O__OO_O_ jtwc_sh SH261971 -24.5000 110.000 25 -1 -24.5000 110.000 981 -24.5000 110.000 TC 60 981 -24.5000 110.000 1 25 -24.1000 109.100 TC 60 981 22 116
1971082S17121 1971 37 SI WA MAVIS 1971-03-27 15:00:00 TS -24.9134 110.840 983 bom main 268 163 P_____O__PP_P_ SH261971 -25.0483 110.929 27 -1 -24.9000 111.000 983 -24.9039 111.008 TC 55 983 -24.9958 110.929 1 31 -24.5843 110.244 TC 57 982 21 119
1971082S17121 1971 37 SI WA MAVIS 1971-03-27 18:00:00 TS -25.4337 111.849 986 bom main 163 41 O_____O__OP_O_ jtwc_sh SH261971 -25.6000 111.900 30 -1 -25.4000 112.000 986 -25.4000 112.000 TC 50 986 -25.5020 111.894 1 37 -25.1000 111.400 TC 55 984 22 120
1971082S17121 1971 37 SI WA MAVIS 1971-03-27 21:00:00 TS -25.9959 112.938 988 bom main 41 0 P_____O__PP_P_ SH261971 -26.1098 112.976 30 -1 -26.2000 113.300 988 -25.8753 112.900 TC 47 988 -26.0578 112.986 1 43 -25.6224 112.487 TC 55 985 24 120
1971082S17121 1971 37 SI WA MAVIS 1971-03-28 00:00:00 TS -26.6000 114.133 990 bom main 0 0 O_____O__OO_O_ jtwc_sh SH261971 -26.7000 114.300 30 -1 -26.6000 114.100 990 -26.6000 114.100 TC 45 990 -26.7000 114.300 2 50 -26.3000 113.700 TC 55 987 30 120
1971082S17121 1971 37 SI WA MAVIS 1971-03-28 03:00:00 TS -27.5130 115.845 991 bom main 0 0 P_____O__PP_P_ SH261971 -27.4544 115.974 32 -1 -27.5000 116.000 991 -27.8761 116.012 TC 45 991 -27.5036 115.959 2 -27.2897 115.149 TC 47 989 38 121
1971082S17121 1971 37 SI WA MAVIS 1971-03-28 06:00:00 TS -28.5785 117.827 992 bom main 0 0 O_____O__OP_O_ jtwc_sh SH261971 -28.3000 117.900 35 0 -29.1000 118.200 992 -29.1000 118.200 TC 45 992 -28.3712 117.861 2 -28.3000 116.900 TC 40 991 39 117
1971082S17121 1971 37 SI WA MAVIS 1971-03-28 09:00:00 TS -29.2971 119.806 995 bom main 0 0 P_____O__PP_P_ SH261971 -29.1789 119.920 37 0 -29.5000 120.000 995 -29.6579 120.117 TC 40 995 -29.2268 119.908 2 -29.0401 118.969 TC 37 993 38 111
1971082S17121 1971 37 SI WA MAVIS 1971-03-28 12:00:00 TS -29.9333 121.867 998 bom main 0 0 O_____O__OO_O_ jtwc_sh SH261971 -30.0000 122.000 40 0 -30.0000 122.000 998 -30.0000 122.000 TC 35 998 -30.0000 122.000 2 -29.6000 121.200 TC 35 995 37 109
1971082S17121 1971 37 SI WA MAVIS 1971-03-28 15:00:00 TS -30.5078 123.901 1001 bom main 0 0 P_____O__PP_P_ SH261971 -30.6640 124.010 42 0 -30.5000 124.000 1001 -30.5426 123.983 TC 27 1001 -30.6426 124.048 2 -30.0340 123.354 TC 32 998 37 107
1971082S17121 1971 37 SI WA MAVIS 1971-03-28 18:00:00 TS -30.9951 125.925 1004 bom main 0 0 O_____O__OP_O_ jtwc_sh SH261971 -31.2000 126.000 45 0 -31.0000 126.000 1004 -31.0000 126.000 TC 20 1004 -31.1706 126.051 2 -30.4000 125.500 TC 30 1001 36 104
1971082S17121 1971 37 SI WA MAVIS 1971-03-28 21:00:00 TS -31.4008 127.945 1006 bom main 0 0 P_____O__PP_P_ SH261971 -31.6339 127.994 47 0 -31.5000 128.000 1006 -31.2283 128.007 TC 17 1005 -31.6139 128.029 2 -30.7946 127.645 TC 27 1003 35 100
1971082S17121 1971 37 SI WA MAVIS 1971-03-29 00:00:00 TS -31.6333 129.967 1007 bom main 0 O_____O__OO_O_ jtwc_sh SH261971 -32.0000 130.000 50 0 -31.3000 130.000 1007 -31.3000 130.000 TC 15 1007 -32.0000 130.000 6 -31.2000 129.800 TC 25 1006 35 98

IBTrACS Databaseについて

本データベースは、米国NOAAが公開する1842年以降の世界の熱帯低気圧のベストトラックデータアーカイブInternational Best Track Archive for Climate Stewardship (IBTrACS)を、ウェブで閲覧しやすい形式に変換したものです。

最終更新日:2021-10-21